sensor_id;sensor_type;location;lat;lon;timestamp;P1;durP1;ratioP1;P2;durP2;ratioP2
61096;SDS011;46977;50.936;6.908;2022-08-11T00:01:35;7.13;;;4.55;;
61096;SDS011;46977;50.936;6.908;2022-08-11T00:04:37;5.75;;;4.18;;
61096;SDS011;46977;50.936;6.908;2022-08-11T00:07:42;6.00;;;4.35;;
61096;SDS011;46977;50.936;6.908;2022-08-11T00:10:50;7.80;;;4.10;;
61096;SDS011;46977;50.936;6.908;2022-08-11T00:13:53;5.85;;;4.28;;
61096;SDS011;46977;50.936;6.908;2022-08-11T00:16:56;6.55;;;4.43;;
61096;SDS011;46977;50.936;6.908;2022-08-11T00:20:05;21.50;;;12.65;;
61096;SDS011;46977;50.936;6.908;2022-08-11T00:23:17;12.35;;;7.22;;
61096;SDS011;46977;50.936;6.908;2022-08-11T00:26:20;9.38;;;4.75;;
61096;SDS011;46977;50.936;6.908;2022-08-11T00:29:23;17.08;;;4.50;;
61096;SDS011;46977;50.936;6.908;2022-08-11T00:32:26;7.60;;;4.78;;
61096;SDS011;46977;50.936;6.908;2022-08-11T00:35:29;6.72;;;4.57;;
61096;SDS011;46977;50.936;6.908;2022-08-11T00:38:54;6.10;;;4.32;;
61096;SDS011;46977;50.936;6.908;2022-08-11T00:45:11;6.75;;;4.25;;
61096;SDS011;46977;50.936;6.908;2022-08-11T00:48:18;5.40;;;4.03;;
61096;SDS011;46977;50.936;6.908;2022-08-11T00:51:34;6.82;;;4.63;;
61096;SDS011;46977;50.936;6.908;2022-08-11T01:02:38;10.82;;;4.40;;
61096;SDS011;46977;50.936;6.908;2022-08-11T01:05:58;6.40;;;4.00;;
61096;SDS011;46977;50.936;6.908;2022-08-11T01:12:52;6.63;;;4.20;;
61096;SDS011;46977;50.936;6.908;2022-08-11T01:16:08;6.93;;;3.95;;
61096;SDS011;46977;50.936;6.908;2022-08-11T01:27:21;7.07;;;4.07;;
61096;SDS011;46977;50.936;6.908;2022-08-11T01:31:01;5.47;;;4.32;;
61096;SDS011;46977;50.936;6.908;2022-08-11T01:38:15;5.05;;;3.95;;
61096;SDS011;46977;50.936;6.908;2022-08-11T01:41:45;7.03;;;4.40;;
61096;SDS011;46977;50.936;6.908;2022-08-11T01:45:29;6.93;;;4.13;;
61096;SDS011;46977;50.936;6.908;2022-08-11T01:48:35;4.97;;;4.10;;
61096;SDS011;46977;50.936;6.908;2022-08-11T01:51:45;5.43;;;4.03;;
61096;SDS011;46977;50.936;6.908;2022-08-11T01:54:58;5.20;;;4.40;;
61096;SDS011;46977;50.936;6.908;2022-08-11T01:58:14;5.05;;;4.38;;
61096;SDS011;46977;50.936;6.908;2022-08-11T02:01:40;5.38;;;4.45;;
61096;SDS011;46977;50.936;6.908;2022-08-11T02:04:49;4.75;;;3.85;;
61096;SDS011;46977;50.936;6.908;2022-08-11T02:07:58;5.28;;;4.22;;
61096;SDS011;46977;50.936;6.908;2022-08-11T02:11:12;6.75;;;4.82;;
61096;SDS011;46977;50.936;6.908;2022-08-11T02:14:33;4.78;;;3.97;;
61096;SDS011;46977;50.936;6.908;2022-08-11T02:17:46;5.18;;;4.68;;
61096;SDS011;46977;50.936;6.908;2022-08-11T02:20:56;7.13;;;5.30;;
61096;SDS011;46977;50.936;6.908;2022-08-11T02:24:25;8.07;;;4.68;;
61096;SDS011;46977;50.936;6.908;2022-08-11T02:27:35;7.35;;;4.50;;
61096;SDS011;46977;50.936;6.908;2022-08-11T02:30:40;8.52;;;4.82;;
61096;SDS011;46977;50.936;6.908;2022-08-11T02:34:31;5.07;;;4.00;;
61096;SDS011;46977;50.936;6.908;2022-08-11T02:37:41;7.57;;;4.60;;
61096;SDS011;46977;50.936;6.908;2022-08-11T02:40:52;7.32;;;4.68;;
61096;SDS011;46977;50.936;6.908;2022-08-11T02:44:08;7.68;;;4.20;;
61096;SDS011;46977;50.936;6.908;2022-08-11T02:47:17;6.13;;;4.00;;
61096;SDS011;46977;50.936;6.908;2022-08-11T02:50:29;6.28;;;4.90;;
61096;SDS011;46977;50.936;6.908;2022-08-11T02:53:36;7.00;;;4.70;;
61096;SDS011;46977;50.936;6.908;2022-08-11T02:56:42;7.53;;;3.92;;
61096;SDS011;46977;50.936;6.908;2022-08-11T02:59:55;4.88;;;4.00;;
61096;SDS011;46977;50.936;6.908;2022-08-11T03:03:04;5.38;;;4.85;;
61096;SDS011;46977;50.936;6.908;2022-08-11T03:06:19;8.25;;;4.75;;
61096;SDS011;46977;50.936;6.908;2022-08-11T03:09:29;7.50;;;4.65;;
61096;SDS011;46977;50.936;6.908;2022-08-11T03:12:45;6.82;;;4.35;;
61096;SDS011;46977;50.936;6.908;2022-08-11T03:16:12;4.68;;;4.18;;
61096;SDS011;46977;50.936;6.908;2022-08-11T03:19:40;5.60;;;4.30;;
61096;SDS011;46977;50.936;6.908;2022-08-11T03:22:50;5.50;;;4.63;;
61096;SDS011;46977;50.936;6.908;2022-08-11T03:25:54;6.07;;;4.22;;
61096;SDS011;46977;50.936;6.908;2022-08-11T03:29:03;7.40;;;4.30;;
61096;SDS011;46977;50.936;6.908;2022-08-11T03:32:18;4.60;;;4.15;;
61096;SDS011;46977;50.936;6.908;2022-08-11T03:35:23;5.38;;;4.60;;
61096;SDS011;46977;50.936;6.908;2022-08-11T03:38:26;6.93;;;5.20;;
61096;SDS011;46977;50.936;6.908;2022-08-11T03:41:39;5.03;;;4.47;;
61096;SDS011;46977;50.936;6.908;2022-08-11T03:45:09;8.57;;;4.82;;
61096;SDS011;46977;50.936;6.908;2022-08-11T03:48:24;4.32;;;3.92;;
61096;SDS011;46977;50.936;6.908;2022-08-11T03:51:30;5.15;;;4.07;;
61096;SDS011;46977;50.936;6.908;2022-08-11T03:54:53;6.05;;;4.68;;
61096;SDS011;46977;50.936;6.908;2022-08-11T04:01:47;7.75;;;4.22;;
61096;SDS011;46977;50.936;6.908;2022-08-11T04:16:28;6.13;;;4.55;;
61096;SDS011;46977;50.936;6.908;2022-08-11T04:19:46;13.35;;;5.25;;
61096;SDS011;46977;50.936;6.908;2022-08-11T04:23:13;9.48;;;4.30;;
61096;SDS011;46977;50.936;6.908;2022-08-11T04:26:47;7.70;;;4.22;;
61096;SDS011;46977;50.936;6.908;2022-08-11T04:30:18;6.75;;;3.90;;
61096;SDS011;46977;50.936;6.908;2022-08-11T04:33:40;7.45;;;4.78;;
61096;SDS011;46977;50.936;6.908;2022-08-11T04:41:06;8.67;;;4.77;;
61096;SDS011;46977;50.936;6.908;2022-08-11T04:48:20;7.53;;;4.10;;
61096;SDS011;46977;50.936;6.908;2022-08-11T04:52:06;7.82;;;4.45;;
61096;SDS011;46977;50.936;6.908;2022-08-11T05:00:02;5.45;;;4.18;;
61096;SDS011;46977;50.936;6.908;2022-08-11T05:03:42;4.97;;;4.55;;
61096;SDS011;46977;50.936;6.908;2022-08-11T05:10:22;7.30;;;4.70;;
61096;SDS011;46977;50.936;6.908;2022-08-11T05:13:33;5.10;;;4.15;;
61096;SDS011;46977;50.936;6.908;2022-08-11T05:17:03;8.68;;;4.68;;
61096;SDS011;46977;50.936;6.908;2022-08-11T05:20:38;6.00;;;4.25;;
61096;SDS011;46977;50.936;6.908;2022-08-11T05:24:12;8.68;;;4.32;;
61096;SDS011;46977;50.936;6.908;2022-08-11T05:27:43;4.88;;;4.18;;
61096;SDS011;46977;50.936;6.908;2022-08-11T05:31:39;5.68;;;4.38;;
61096;SDS011;46977;50.936;6.908;2022-08-11T05:35:08;9.52;;;4.43;;
61096;SDS011;46977;50.936;6.908;2022-08-11T05:38:34;7.28;;;4.15;;
61096;SDS011;46977;50.936;6.908;2022-08-11T05:41:56;7.95;;;4.68;;
61096;SDS011;46977;50.936;6.908;2022-08-11T05:45:31;15.55;;;4.53;;
61096;SDS011;46977;50.936;6.908;2022-08-11T05:49:09;8.50;;;4.38;;
61096;SDS011;46977;50.936;6.908;2022-08-11T05:52:33;7.50;;;3.92;;
61096;SDS011;46977;50.936;6.908;2022-08-11T05:56:04;9.02;;;3.95;;
61096;SDS011;46977;50.936;6.908;2022-08-11T05:59:23;8.55;;;3.58;;
61096;SDS011;46977;50.936;6.908;2022-08-11T06:02:28;7.43;;;4.90;;
61096;SDS011;46977;50.936;6.908;2022-08-11T06:05:31;10.10;;;4.68;;
61096;SDS011;46977;50.936;6.908;2022-08-11T06:08:44;9.35;;;5.05;;
61096;SDS011;46977;50.936;6.908;2022-08-11T06:11:48;8.85;;;4.45;;
61096;SDS011;46977;50.936;6.908;2022-08-11T06:14:53;8.82;;;4.90;;
61096;SDS011;46977;50.936;6.908;2022-08-11T06:17:56;8.68;;;3.75;;
61096;SDS011;46977;50.936;6.908;2022-08-11T06:21:00;6.45;;;3.90;;
61096;SDS011;46977;50.936;6.908;2022-08-11T06:24:09;5.32;;;4.18;;
61096;SDS011;46977;50.936;6.908;2022-08-11T06:27:14;6.70;;;4.05;;
61096;SDS011;46977;50.936;6.908;2022-08-11T06:30:39;4.82;;;3.75;;
61096;SDS011;46977;50.936;6.908;2022-08-11T06:33:52;6.38;;;4.03;;
61096;SDS011;46977;50.936;6.908;2022-08-11T06:41:00;7.03;;;3.78;;
61096;SDS011;46977;50.936;6.908;2022-08-11T06:44:26;4.68;;;3.90;;
61096;SDS011;46977;50.936;6.908;2022-08-11T06:47:30;6.95;;;3.92;;
61096;SDS011;46977;50.936;6.908;2022-08-11T06:50:33;6.68;;;3.38;;
61096;SDS011;46977;50.936;6.908;2022-08-11T06:53:55;8.32;;;3.40;;
61096;SDS011;46977;50.936;6.908;2022-08-11T06:57:06;8.63;;;3.53;;
61096;SDS011;46977;50.936;6.908;2022-08-11T07:00:35;7.03;;;3.25;;
61096;SDS011;46977;50.936;6.908;2022-08-11T07:03:39;10.15;;;3.28;;
61096;SDS011;46977;50.936;6.908;2022-08-11T07:07:00;8.00;;;3.50;;
61096;SDS011;46977;50.936;6.908;2022-08-11T07:10:43;6.85;;;2.85;;
61096;SDS011;46977;50.936;6.908;2022-08-11T07:14:09;5.10;;;3.28;;
61096;SDS011;46977;50.936;6.908;2022-08-11T07:17:31;6.82;;;3.38;;
61096;SDS011;46977;50.936;6.908;2022-08-11T07:20:38;5.53;;;3.30;;
61096;SDS011;46977;50.936;6.908;2022-08-11T07:24:06;4.40;;;3.00;;
61096;SDS011;46977;50.936;6.908;2022-08-11T07:27:54;4.85;;;3.35;;
61096;SDS011;46977;50.936;6.908;2022-08-11T07:31:17;8.98;;;3.70;;
61096;SDS011;46977;50.936;6.908;2022-08-11T07:34:27;5.50;;;3.47;;
61096;SDS011;46977;50.936;6.908;2022-08-11T07:37:33;7.07;;;3.58;;
61096;SDS011;46977;50.936;6.908;2022-08-11T07:40:36;5.18;;;3.00;;
61096;SDS011;46977;50.936;6.908;2022-08-11T07:43:39;3.78;;;2.95;;
61096;SDS011;46977;50.936;6.908;2022-08-11T07:46:43;7.28;;;3.20;;
61096;SDS011;46977;50.936;6.908;2022-08-11T07:50:07;5.93;;;2.72;;
61096;SDS011;46977;50.936;6.908;2022-08-11T07:53:29;8.27;;;2.80;;
61096;SDS011;46977;50.936;6.908;2022-08-11T07:56:32;5.72;;;3.00;;
61096;SDS011;46977;50.936;6.908;2022-08-11T07:59:56;7.72;;;2.67;;
61096;SDS011;46977;50.936;6.908;2022-08-11T08:03:18;4.65;;;2.90;;
61096;SDS011;46977;50.936;6.908;2022-08-11T08:06:57;4.03;;;2.60;;
61096;SDS011;46977;50.936;6.908;2022-08-11T08:10:18;8.55;;;3.25;;
61096;SDS011;46977;50.936;6.908;2022-08-11T08:13:39;6.03;;;3.03;;
61096;SDS011;46977;50.936;6.908;2022-08-11T08:17:01;5.75;;;2.88;;
61096;SDS011;46977;50.936;6.908;2022-08-11T08:20:23;5.75;;;2.78;;
61096;SDS011;46977;50.936;6.908;2022-08-11T08:23:30;4.40;;;2.97;;
61096;SDS011;46977;50.936;6.908;2022-08-11T08:26:35;4.70;;;2.53;;
61096;SDS011;46977;50.936;6.908;2022-08-11T08:29:57;4.28;;;2.80;;
61096;SDS011;46977;50.936;6.908;2022-08-11T08:33:19;4.68;;;3.28;;
61096;SDS011;46977;50.936;6.908;2022-08-11T08:36:22;3.20;;;2.55;;
61096;SDS011;46977;50.936;6.908;2022-08-11T08:39:25;7.35;;;2.85;;
61096;SDS011;46977;50.936;6.908;2022-08-11T08:42:29;5.75;;;3.90;;
61096;SDS011;46977;50.936;6.908;2022-08-11T08:45:34;4.07;;;3.67;;
61096;SDS011;46977;50.936;6.908;2022-08-11T08:48:40;4.95;;;2.40;;
61096;SDS011;46977;50.936;6.908;2022-08-11T08:51:43;3.00;;;2.55;;
61096;SDS011;46977;50.936;6.908;2022-08-11T08:55:09;7.97;;;3.95;;
61096;SDS011;46977;50.936;6.908;2022-08-11T08:58:18;11.65;;;6.00;;
61096;SDS011;46977;50.936;6.908;2022-08-11T09:01:21;7.95;;;4.22;;
61096;SDS011;46977;50.936;6.908;2022-08-11T09:04:26;5.55;;;2.83;;
61096;SDS011;46977;50.936;6.908;2022-08-11T09:07:28;3.60;;;2.42;;
61096;SDS011;46977;50.936;6.908;2022-08-11T09:10:42;8.05;;;2.53;;
61096;SDS011;46977;50.936;6.908;2022-08-11T09:13:46;4.90;;;2.05;;
61096;SDS011;46977;50.936;6.908;2022-08-11T09:17:07;4.00;;;2.78;;
61096;SDS011;46977;50.936;6.908;2022-08-11T09:20:11;5.97;;;2.80;;
61096;SDS011;46977;50.936;6.908;2022-08-11T09:23:14;9.45;;;2.75;;
61096;SDS011;46977;50.936;6.908;2022-08-11T09:26:56;5.38;;;2.65;;
61096;SDS011;46977;50.936;6.908;2022-08-11T09:30:04;5.20;;;2.78;;
61096;SDS011;46977;50.936;6.908;2022-08-11T09:33:11;6.50;;;2.75;;
61096;SDS011;46977;50.936;6.908;2022-08-11T09:36:15;2.30;;;2.10;;
61096;SDS011;46977;50.936;6.908;2022-08-11T09:39:38;4.95;;;2.28;;
61096;SDS011;46977;50.936;6.908;2022-08-11T09:43:02;3.38;;;1.90;;
61096;SDS011;46977;50.936;6.908;2022-08-11T09:46:26;3.90;;;2.50;;
61096;SDS011;46977;50.936;6.908;2022-08-11T09:49:29;3.50;;;2.30;;
61096;SDS011;46977;50.936;6.908;2022-08-11T09:52:33;8.48;;;2.28;;
61096;SDS011;46977;50.936;6.908;2022-08-11T09:55:43;3.33;;;2.30;;
61096;SDS011;46977;50.936;6.908;2022-08-11T09:58:48;5.82;;;2.10;;
61096;SDS011;46977;50.936;6.908;2022-08-11T10:01:54;3.83;;;1.98;;
61096;SDS011;46977;50.936;6.908;2022-08-11T10:05:00;4.43;;;2.00;;
61096;SDS011;46977;50.936;6.908;2022-08-11T10:08:25;3.60;;;2.13;;
61096;SDS011;46977;50.936;6.908;2022-08-11T10:11:31;2.70;;;1.88;;
61096;SDS011;46977;50.936;6.908;2022-08-11T10:14:38;4.70;;;2.08;;
61096;SDS011;46977;50.936;6.908;2022-08-11T10:18:03;3.53;;;1.98;;
61096;SDS011;46977;50.936;6.908;2022-08-11T10:21:27;2.38;;;2.17;;
61096;SDS011;46977;50.936;6.908;2022-08-11T10:24:30;4.35;;;2.10;;
61096;SDS011;46977;50.936;6.908;2022-08-11T10:27:51;4.32;;;2.20;;
61096;SDS011;46977;50.936;6.908;2022-08-11T10:31:23;2.30;;;2.10;;
61096;SDS011;46977;50.936;6.908;2022-08-11T10:35:00;5.47;;;2.72;;
61096;SDS011;46977;50.936;6.908;2022-08-11T10:38:03;2.75;;;2.35;;
61096;SDS011;46977;50.936;6.908;2022-08-11T10:41:10;4.43;;;2.30;;
61096;SDS011;46977;50.936;6.908;2022-08-11T10:44:34;4.05;;;1.95;;
61096;SDS011;46977;50.936;6.908;2022-08-11T10:47:40;4.70;;;2.33;;
61096;SDS011;46977;50.936;6.908;2022-08-11T10:50:50;3.45;;;2.30;;
61096;SDS011;46977;50.936;6.908;2022-08-11T10:54:13;3.92;;;2.20;;
61096;SDS011;46977;50.936;6.908;2022-08-11T10:57:36;3.35;;;2.10;;
61096;SDS011;46977;50.936;6.908;2022-08-11T11:01:08;2.20;;;2.00;;
61096;SDS011;46977;50.936;6.908;2022-08-11T11:04:13;4.85;;;2.28;;
61096;SDS011;46977;50.936;6.908;2022-08-11T11:07:18;3.72;;;2.50;;
61096;SDS011;46977;50.936;6.908;2022-08-11T11:10:23;3.63;;;2.42;;
61096;SDS011;46977;50.936;6.908;2022-08-11T11:13:25;2.40;;;2.00;;
61096;SDS011;46977;50.936;6.908;2022-08-11T11:16:56;5.90;;;2.35;;
61096;SDS011;46977;50.936;6.908;2022-08-11T11:20:19;2.80;;;2.42;;
61096;SDS011;46977;50.936;6.908;2022-08-11T11:26:42;3.55;;;2.50;;
61096;SDS011;46977;50.936;6.908;2022-08-11T11:30:01;3.38;;;3.03;;
61096;SDS011;46977;50.936;6.908;2022-08-11T11:33:07;5.22;;;2.90;;
61096;SDS011;46977;50.936;6.908;2022-08-11T11:36:16;4.35;;;2.53;;
61096;SDS011;46977;50.936;6.908;2022-08-11T11:39:26;3.45;;;2.47;;
61096;SDS011;46977;50.936;6.908;2022-08-11T11:42:29;3.78;;;2.40;;
61096;SDS011;46977;50.936;6.908;2022-08-11T11:45:32;3.55;;;2.55;;
61096;SDS011;46977;50.936;6.908;2022-08-11T11:48:34;4.32;;;2.78;;
61096;SDS011;46977;50.936;6.908;2022-08-11T11:51:38;5.55;;;2.67;;
61096;SDS011;46977;50.936;6.908;2022-08-11T11:54:43;2.97;;;2.58;;
61096;SDS011;46977;50.936;6.908;2022-08-11T11:57:46;2.97;;;2.58;;
61096;SDS011;46977;50.936;6.908;2022-08-11T12:01:08;3.70;;;2.70;;
61096;SDS011;46977;50.936;6.908;2022-08-11T12:04:17;4.68;;;3.00;;
61096;SDS011;46977;50.936;6.908;2022-08-11T12:07:22;3.50;;;2.92;;
61096;SDS011;46977;50.936;6.908;2022-08-11T12:10:44;3.25;;;2.60;;
61096;SDS011;46977;50.936;6.908;2022-08-11T12:13:49;3.95;;;2.72;;
61096;SDS011;46977;50.936;6.908;2022-08-11T12:16:54;4.47;;;2.70;;
61096;SDS011;46977;50.936;6.908;2022-08-11T12:19:57;5.05;;;2.88;;
61096;SDS011;46977;50.936;6.908;2022-08-11T12:23:03;5.88;;;3.20;;
61096;SDS011;46977;50.936;6.908;2022-08-11T12:26:25;3.33;;;3.00;;
61096;SDS011;46977;50.936;6.908;2022-08-11T12:30:06;3.22;;;2.92;;
61096;SDS011;46977;50.936;6.908;2022-08-11T12:33:10;3.20;;;2.90;;
61096;SDS011;46977;50.936;6.908;2022-08-11T12:36:18;4.07;;;2.95;;
61096;SDS011;46977;50.936;6.908;2022-08-11T12:39:23;5.00;;;2.63;;
61096;SDS011;46977;50.936;6.908;2022-08-11T12:43:08;3.75;;;2.90;;
61096;SDS011;46977;50.936;6.908;2022-08-11T12:46:40;3.38;;;2.97;;
61096;SDS011;46977;50.936;6.908;2022-08-11T12:49:46;6.53;;;3.08;;
61096;SDS011;46977;50.936;6.908;2022-08-11T12:53:25;2.75;;;2.53;;
61096;SDS011;46977;50.936;6.908;2022-08-11T12:56:35;3.00;;;2.80;;
61096;SDS011;46977;50.936;6.908;2022-08-11T12:59:58;5.57;;;3.03;;
61096;SDS011;46977;50.936;6.908;2022-08-11T13:03:20;5.25;;;3.13;;
61096;SDS011;46977;50.936;6.908;2022-08-11T13:06:41;2.97;;;2.78;;
61096;SDS011;46977;50.936;6.908;2022-08-11T13:10:01;3.08;;;2.78;;
61096;SDS011;46977;50.936;6.908;2022-08-11T13:13:06;3.50;;;3.15;;
61096;SDS011;46977;50.936;6.908;2022-08-11T13:16:29;3.50;;;3.10;;
61096;SDS011;46977;50.936;6.908;2022-08-11T13:19:54;3.90;;;3.28;;
61096;SDS011;46977;50.936;6.908;2022-08-11T13:22:58;4.60;;;2.90;;
61096;SDS011;46977;50.936;6.908;2022-08-11T13:26:01;4.63;;;2.83;;
61096;SDS011;46977;50.936;6.908;2022-08-11T13:29:05;3.03;;;2.83;;
61096;SDS011;46977;50.936;6.908;2022-08-11T13:32:07;3.38;;;3.00;;
61096;SDS011;46977;50.936;6.908;2022-08-11T13:35:12;3.47;;;2.85;;
61096;SDS011;46977;50.936;6.908;2022-08-11T13:38:19;5.85;;;2.78;;
61096;SDS011;46977;50.936;6.908;2022-08-11T13:41:23;2.90;;;2.65;;
61096;SDS011;46977;50.936;6.908;2022-08-11T13:44:43;3.50;;;2.95;;
61096;SDS011;46977;50.936;6.908;2022-08-11T13:47:46;5.55;;;3.30;;
61096;SDS011;46977;50.936;6.908;2022-08-11T13:50:50;7.38;;;3.33;;
61096;SDS011;46977;50.936;6.908;2022-08-11T13:54:16;4.28;;;3.55;;
61096;SDS011;46977;50.936;6.908;2022-08-11T13:57:20;4.03;;;3.10;;
61096;SDS011;46977;50.936;6.908;2022-08-11T14:00:47;3.25;;;2.88;;
61096;SDS011;46977;50.936;6.908;2022-08-11T14:03:55;4.50;;;2.80;;
61096;SDS011;46977;50.936;6.908;2022-08-11T14:07:20;7.47;;;2.95;;
61096;SDS011;46977;50.936;6.908;2022-08-11T14:10:26;3.58;;;2.35;;
61096;SDS011;46977;50.936;6.908;2022-08-11T14:13:33;4.18;;;2.90;;
61096;SDS011;46977;50.936;6.908;2022-08-11T14:16:45;6.00;;;2.78;;
61096;SDS011;46977;50.936;6.908;2022-08-11T14:19:52;3.53;;;3.08;;
61096;SDS011;46977;50.936;6.908;2022-08-11T14:22:55;4.22;;;2.97;;
61096;SDS011;46977;50.936;6.908;2022-08-11T14:25:57;7.10;;;3.40;;
61096;SDS011;46977;50.936;6.908;2022-08-11T14:29:20;5.53;;;3.33;;
61096;SDS011;46977;50.936;6.908;2022-08-11T14:32:24;6.93;;;3.30;;
61096;SDS011;46977;50.936;6.908;2022-08-11T14:35:34;4.75;;;3.30;;
61096;SDS011;46977;50.936;6.908;2022-08-11T14:38:43;3.88;;;2.80;;
61096;SDS011;46977;50.936;6.908;2022-08-11T14:41:47;6.20;;;3.15;;
61096;SDS011;46977;50.936;6.908;2022-08-11T14:45:15;3.63;;;3.00;;
61096;SDS011;46977;50.936;6.908;2022-08-11T14:49:00;7.35;;;3.15;;
61096;SDS011;46977;50.936;6.908;2022-08-11T14:52:06;4.80;;;3.05;;
61096;SDS011;46977;50.936;6.908;2022-08-11T14:55:14;5.45;;;3.20;;
61096;SDS011;46977;50.936;6.908;2022-08-11T14:58:35;5.38;;;3.35;;
61096;SDS011;46977;50.936;6.908;2022-08-11T15:01:40;4.00;;;2.88;;
61096;SDS011;46977;50.936;6.908;2022-08-11T15:05:06;5.25;;;3.30;;
61096;SDS011;46977;50.936;6.908;2022-08-11T15:08:09;4.45;;;3.08;;
61096;SDS011;46977;50.936;6.908;2022-08-11T15:11:15;3.80;;;3.50;;
61096;SDS011;46977;50.936;6.908;2022-08-11T15:14:36;4.53;;;3.10;;
61096;SDS011;46977;50.936;6.908;2022-08-11T15:17:59;3.35;;;3.03;;
61096;SDS011;46977;50.936;6.908;2022-08-11T15:21:04;8.77;;;3.10;;
61096;SDS011;46977;50.936;6.908;2022-08-11T15:24:26;3.05;;;2.78;;
61096;SDS011;46977;50.936;6.908;2022-08-11T15:27:32;3.50;;;3.30;;
61096;SDS011;46977;50.936;6.908;2022-08-11T15:30:54;5.10;;;3.28;;
61096;SDS011;46977;50.936;6.908;2022-08-11T15:34:16;5.55;;;3.22;;
61096;SDS011;46977;50.936;6.908;2022-08-11T15:37:40;4.85;;;3.38;;
61096;SDS011;46977;50.936;6.908;2022-08-11T15:40:44;3.63;;;3.33;;
61096;SDS011;46977;50.936;6.908;2022-08-11T15:44:06;4.30;;;3.45;;
61096;SDS011;46977;50.936;6.908;2022-08-11T15:48:02;4.60;;;3.25;;
61096;SDS011;46977;50.936;6.908;2022-08-11T15:51:12;6.65;;;3.75;;
61096;SDS011;46977;50.936;6.908;2022-08-11T15:54:21;4.55;;;3.65;;
61096;SDS011;46977;50.936;6.908;2022-08-11T15:57:25;4.10;;;3.50;;
61096;SDS011;46977;50.936;6.908;2022-08-11T16:00:46;4.20;;;3.30;;
61096;SDS011;46977;50.936;6.908;2022-08-11T16:04:13;4.00;;;3.55;;
61096;SDS011;46977;50.936;6.908;2022-08-11T16:07:16;4.78;;;3.03;;
61096;SDS011;46977;50.936;6.908;2022-08-11T16:10:27;3.40;;;3.15;;
61096;SDS011;46977;50.936;6.908;2022-08-11T16:13:34;4.75;;;3.40;;
61096;SDS011;46977;50.936;6.908;2022-08-11T16:16:37;4.03;;;3.67;;
61096;SDS011;46977;50.936;6.908;2022-08-11T16:19:41;4.07;;;3.10;;
61096;SDS011;46977;50.936;6.908;2022-08-11T16:22:45;4.60;;;3.25;;
61096;SDS011;46977;50.936;6.908;2022-08-11T16:26:04;3.60;;;3.30;;
61096;SDS011;46977;50.936;6.908;2022-08-11T16:29:26;3.85;;;3.55;;
61096;SDS011;46977;50.936;6.908;2022-08-11T16:32:32;4.68;;;3.10;;
61096;SDS011;46977;50.936;6.908;2022-08-11T16:35:36;4.53;;;3.45;;
61096;SDS011;46977;50.936;6.908;2022-08-11T16:38:58;4.85;;;3.58;;
61096;SDS011;46977;50.936;6.908;2022-08-11T16:42:02;3.65;;;3.30;;
61096;SDS011;46977;50.936;6.908;2022-08-11T16:45:43;5.55;;;3.10;;
61096;SDS011;46977;50.936;6.908;2022-08-11T16:49:05;6.95;;;3.17;;
61096;SDS011;46977;50.936;6.908;2022-08-11T16:52:10;5.70;;;3.53;;
61096;SDS011;46977;50.936;6.908;2022-08-11T16:55:13;4.57;;;3.33;;
61096;SDS011;46977;50.936;6.908;2022-08-11T16:58:37;4.43;;;3.42;;
61096;SDS011;46977;50.936;6.908;2022-08-11T17:02:00;5.40;;;3.40;;
61096;SDS011;46977;50.936;6.908;2022-08-11T17:05:07;4.18;;;3.70;;
61096;SDS011;46977;50.936;6.908;2022-08-11T17:08:31;3.90;;;3.53;;
61096;SDS011;46977;50.936;6.908;2022-08-11T17:11:58;7.70;;;3.45;;
61096;SDS011;46977;50.936;6.908;2022-08-11T17:15:23;4.95;;;3.38;;
61096;SDS011;46977;50.936;6.908;2022-08-11T17:18:53;3.63;;;3.30;;
61096;SDS011;46977;50.936;6.908;2022-08-11T17:21:59;4.72;;;3.10;;
61096;SDS011;46977;50.936;6.908;2022-08-11T17:25:21;6.18;;;3.33;;
61096;SDS011;46977;50.936;6.908;2022-08-11T17:28:25;8.07;;;3.25;;
61096;SDS011;46977;50.936;6.908;2022-08-11T17:31:29;4.93;;;3.45;;
61096;SDS011;46977;50.936;6.908;2022-08-11T17:34:51;4.47;;;3.50;;
61096;SDS011;46977;50.936;6.908;2022-08-11T17:38:17;5.50;;;4.00;;
61096;SDS011;46977;50.936;6.908;2022-08-11T17:41:20;6.88;;;3.60;;
61096;SDS011;46977;50.936;6.908;2022-08-11T17:44:41;7.35;;;3.38;;
61096;SDS011;46977;50.936;6.908;2022-08-11T17:48:07;6.68;;;3.50;;
61096;SDS011;46977;50.936;6.908;2022-08-11T17:51:28;10.63;;;3.47;;
61096;SDS011;46977;50.936;6.908;2022-08-11T17:55:02;6.95;;;3.42;;
61096;SDS011;46977;50.936;6.908;2022-08-11T17:58:43;3.78;;;3.33;;
61096;SDS011;46977;50.936;6.908;2022-08-11T18:02:05;4.28;;;4.00;;
61096;SDS011;46977;50.936;6.908;2022-08-11T18:05:38;5.97;;;3.90;;
61096;SDS011;46977;50.936;6.908;2022-08-11T18:08:45;7.00;;;4.68;;
61096;SDS011;46977;50.936;6.908;2022-08-11T18:12:06;7.93;;;4.32;;
61096;SDS011;46977;50.936;6.908;2022-08-11T18:15:31;13.73;;;4.88;;
61096;SDS011;46977;50.936;6.908;2022-08-11T18:18:56;4.72;;;4.30;;
61096;SDS011;46977;50.936;6.908;2022-08-11T18:25:41;4.97;;;3.97;;
61096;SDS011;46977;50.936;6.908;2022-08-11T18:29:08;4.90;;;4.40;;
61096;SDS011;46977;50.936;6.908;2022-08-11T18:32:30;4.38;;;3.97;;
61096;SDS011;46977;50.936;6.908;2022-08-11T18:36:00;5.20;;;4.18;;
61096;SDS011;46977;50.936;6.908;2022-08-11T18:39:23;5.82;;;4.43;;
61096;SDS011;46977;50.936;6.908;2022-08-11T18:42:59;6.68;;;3.90;;
61096;SDS011;46977;50.936;6.908;2022-08-11T18:46:28;4.82;;;3.85;;
61096;SDS011;46977;50.936;6.908;2022-08-11T18:49:51;4.80;;;4.22;;
61096;SDS011;46977;50.936;6.908;2022-08-11T18:53:16;6.85;;;4.45;;
61096;SDS011;46977;50.936;6.908;2022-08-11T18:56:39;8.43;;;3.95;;
61096;SDS011;46977;50.936;6.908;2022-08-11T19:00:03;5.78;;;4.00;;
61096;SDS011;46977;50.936;6.908;2022-08-11T19:03:25;7.18;;;5.20;;
61096;SDS011;46977;50.936;6.908;2022-08-11T19:06:51;10.38;;;5.65;;
61096;SDS011;46977;50.936;6.908;2022-08-11T19:10:13;6.95;;;4.78;;
61096;SDS011;46977;50.936;6.908;2022-08-11T19:13:35;8.07;;;5.03;;
61096;SDS011;46977;50.936;6.908;2022-08-11T19:16:57;6.22;;;4.70;;
61096;SDS011;46977;50.936;6.908;2022-08-11T19:20:39;6.85;;;5.35;;
61096;SDS011;46977;50.936;6.908;2022-08-11T19:24:03;10.27;;;5.13;;
61096;SDS011;46977;50.936;6.908;2022-08-11T19:27:25;7.65;;;5.53;;
61096;SDS011;46977;50.936;6.908;2022-08-11T19:30:49;8.27;;;4.88;;
61096;SDS011;46977;50.936;6.908;2022-08-11T19:34:10;10.35;;;5.70;;
61096;SDS011;46977;50.936;6.908;2022-08-11T19:37:33;7.55;;;5.53;;
61096;SDS011;46977;50.936;6.908;2022-08-11T19:40:55;7.78;;;5.43;;
61096;SDS011;46977;50.936;6.908;2022-08-11T19:44:19;8.13;;;5.60;;
61096;SDS011;46977;50.936;6.908;2022-08-11T19:47:42;8.48;;;5.45;;
61096;SDS011;46977;50.936;6.908;2022-08-11T19:51:24;8.20;;;5.60;;
61096;SDS011;46977;50.936;6.908;2022-08-11T19:54:45;6.75;;;5.30;;
61096;SDS011;46977;50.936;6.908;2022-08-11T19:58:07;9.95;;;5.63;;
61096;SDS011;46977;50.936;6.908;2022-08-11T20:01:31;6.75;;;4.85;;
61096;SDS011;46977;50.936;6.908;2022-08-11T20:05:13;5.80;;;5.00;;
61096;SDS011;46977;50.936;6.908;2022-08-11T20:08:34;7.30;;;4.72;;
61096;SDS011;46977;50.936;6.908;2022-08-11T20:11:59;7.03;;;5.45;;
61096;SDS011;46977;50.936;6.908;2022-08-11T20:15:28;7.68;;;5.40;;
61096;SDS011;46977;50.936;6.908;2022-08-11T20:18:51;7.55;;;5.45;;
61096;SDS011;46977;50.936;6.908;2022-08-11T20:22:14;6.10;;;5.60;;
61096;SDS011;46977;50.936;6.908;2022-08-11T20:25:36;14.05;;;5.45;;
61096;SDS011;46977;50.936;6.908;2022-08-11T20:29:15;7.85;;;5.75;;
61096;SDS011;46977;50.936;6.908;2022-08-11T20:32:47;6.65;;;5.28;;
61096;SDS011;46977;50.936;6.908;2022-08-11T20:36:09;5.47;;;5.05;;
61096;SDS011;46977;50.936;6.908;2022-08-11T20:39:36;6.63;;;5.25;;
61096;SDS011;46977;50.936;6.908;2022-08-11T20:43:00;6.70;;;6.00;;
61096;SDS011;46977;50.936;6.908;2022-08-11T20:46:44;8.18;;;5.60;;
61096;SDS011;46977;50.936;6.908;2022-08-11T20:50:14;6.43;;;5.88;;
61096;SDS011;46977;50.936;6.908;2022-08-11T20:53:37;6.25;;;4.90;;